Airfield :
LOGIN :

Register | Disclaimer

   EN    FR    IT 

 










Legend :    VFR   Marginal VFR   IFR   Intensive IFR   Very Intensive IFR
Visi :
Ceiling :
>= 8 km
>= 3000ft
5 to 8 km
1000 to 3000 ft
1500m to 5 km
500 to 1000 ft
800 to 1500m
200 to 500 ft
< 800m
< 200 ft
Symbols :   Thunderstorms  Fog  Heavy snow  Heavy precipitations  Wind > 20 kt
SIGMETs :     Misc.  Thunderstorms  Icing  Turbulence  Mountain Waves  Volcanic Ashes







- Airport Elevation : 160 ft
- IATA code : LRT
- Download approach charts


LFRH - Lorient Lann Bihoue

CURRENT METAR :
  • 221100Z AUTO 18012KT 2500 -DZ BR OVC004 15/15 Q1019 TEMPO BKN025 OVC060 BECMG 21015G28KT 3000 RADZ

EXPIRED METARs :
  • 221030Z AUTO 18012KT 3000 -DZ BR BKN006 OVC017 15/15 Q1020 TEMPO 9999 NSW BKN025 OVC060 BECMG 21015G28KT
  • 221000Z AUTO 19012KT 4600 -RA BR BKN014 BKN020 OVC025 15/15 Q1020 BECMG 9999 NSW BKN025 OVC060
  • 220930Z AUTO 18012KT 8000 -RA FEW021 BKN027 BKN032 16/14 Q1020 TEMPO 4000 RA
  • 220900Z AUTO 17011KT 9999 FEW032 BKN039 BKN046 16/14 Q1021 TEMPO 4000 RA
  • 220830Z AUTO 17011KT CAVOK 16/14 Q1021 TEMPO 4000 RA

TAF TAF LFRH
Valid from the 22 at 06:00 until the 23 at 06:00 UTC


220500Z 2206/2306 15005KT 9999 BKN025 OVC060
TEMPO 2207/2211 4000 RA BKN018
BECMG 2208/2210 16010G20KT
BECMG 2212/2215 21015G28KT 3000 RADZ BKN004 OVC008
TEMPO 2217/2306 1000 +DZ VV///
BECMG 2301/2303 23010G20KT
No reported NOTAMs for that airfield.



MET'MAP, your aeronautical weather chart ! - Copyright ORBIFLY December 2007 - Disclaimer

ORBIFLY MET'MAP TEAM :

Programming & Development : Alexandra Zaïnal
Concept & Development : Baudouin d'Aumeries
Co-Development & Prog : Marc-Olivier Méhu
Technical & hardware support : Manuel Goepfert

Contact : metmap@orbifly.com




SOURCES & CREDITS :

   NOAA